Disclaimer

Please do not use the information listed here in-flight or in-navigation, as they are not provided to us by the airports but are provided by volunteers, so they might be outdated.

Search


Regions


Airport information page

Radio informations:
Tower (TWR) - 118.1 MHz
MARSH APP - 118.1 MHz

Airport informations:
Latitude: 62° 11' 27.00" S
Longitude: 058° 59' 12.00" W
Elevation: 147 feet - 45 meters
Operating hours: Remarks
Operating agency: Civil government, landing fees and diplomatic clearance may be required
Timezone: UTC-4
Fuel: Aviation Gasoline (AVGAS), octane unknown.

Runway information:
11/29 - 4238 x 125 feet< - >1292 x 38 meters

Recent METARs:
SCRM 181600Z 22011KT 180V240 9999 SCT015 SCT020 01/M02 Q0975
SCRM 181600Z 22011KT 180V240 9999 SCT015 SCT020 01/M02 Q0975
SCRM 181700Z 24015KT 9999 SCT015 SCT030 01/M03 Q0976

Airport on the map: